Gararu, Brazil
Current Conditions -  °F | °C
As of 6:00 PM on Thursday 27 Nov 2014 (Local Time) from SBAR Reporting Station
Clear Clear  
Wind Chill: 79°   Ceiling: Unl
Heat Index: 81°   Visibility: 6mi
Dew Point: 70°   Wind: 13mph
Humidity: 74%   Direction: 110°ESE
Pressure: 29.91"   Gusts: NA
Location:  9.98°S, 37.07°W
Report Text: SBAR 272100Z 11011KT CAVOK 26/21 Q1013
Loading
Personal Weather Stations






























Interactive Weather Map New forecast layout! Learn more

10-Day Weather Forecast

Advertisements
Track Severe Weather on mobile